sensor_id;sensor_type;location;lat;lon;timestamp;P1;durP1;ratioP1;P2;durP2;ratioP2
46084;SDS011;31823;47.032;8.310;2023-04-03T00:02:15;1.00;;;1.00;;
46084;SDS011;31823;47.032;8.310;2023-04-03T00:04:40;1.88;;;1.30;;
46084;SDS011;31823;47.032;8.310;2023-04-03T00:07:06;1.98;;;1.25;;
46084;SDS011;31823;47.032;8.310;2023-04-03T00:09:32;1.50;;;1.40;;
46084;SDS011;31823;47.032;8.310;2023-04-03T00:11:58;1.25;;;1.15;;
46084;SDS011;31823;47.032;8.310;2023-04-03T00:14:23;2.15;;;1.08;;
46084;SDS011;31823;47.032;8.310;2023-04-03T00:16:49;2.03;;;1.27;;
46084;SDS011;31823;47.032;8.310;2023-04-03T00:19:14;1.38;;;1.20;;
46084;SDS011;31823;47.032;8.310;2023-04-03T00:21:40;1.30;;;1.20;;
46084;SDS011;31823;47.032;8.310;2023-04-03T00:24:06;1.27;;;1.23;;
46084;SDS011;31823;47.032;8.310;2023-04-03T00:26:32;3.17;;;1.50;;
46084;SDS011;31823;47.032;8.310;2023-04-03T00:28:57;2.45;;;1.33;;
46084;SDS011;31823;47.032;8.310;2023-04-03T00:31:23;1.50;;;1.40;;
46084;SDS011;31823;47.032;8.310;2023-04-03T00:33:48;1.40;;;1.30;;
46084;SDS011;31823;47.032;8.310;2023-04-03T00:36:14;1.50;;;1.40;;
46084;SDS011;31823;47.032;8.310;2023-04-03T00:38:40;2.15;;;1.50;;
46084;SDS011;31823;47.032;8.310;2023-04-03T00:41:06;1.60;;;1.50;;
46084;SDS011;31823;47.032;8.310;2023-04-03T00:43:32;2.85;;;1.50;;
46084;SDS011;31823;47.032;8.310;2023-04-03T00:46:00;1.67;;;1.58;;
46084;SDS011;31823;47.032;8.310;2023-04-03T00:50:57;2.40;;;1.45;;
46084;SDS011;31823;47.032;8.310;2023-04-03T00:53:27;2.10;;;1.92;;
46084;SDS011;31823;47.032;8.310;2023-04-03T00:55:57;2.80;;;1.90;;
46084;SDS011;31823;47.032;8.310;2023-04-03T00:59:08;2.17;;;1.60;;
46084;SDS011;31823;47.032;8.310;2023-04-03T01:01:25;1.98;;;1.88;;
46084;SDS011;31823;47.032;8.310;2023-04-03T01:03:53;2.38;;;2.17;;
46084;SDS011;31823;47.032;8.310;2023-04-03T01:06:29;2.70;;;1.70;;
46084;SDS011;31823;47.032;8.310;2023-04-03T01:08:58;4.13;;;1.73;;
46084;SDS011;31823;47.032;8.310;2023-04-03T01:11:25;2.10;;;1.80;;
46084;SDS011;31823;47.032;8.310;2023-04-03T01:13:51;2.38;;;2.17;;
46084;SDS011;31823;47.032;8.310;2023-04-03T01:16:17;3.83;;;2.53;;
46084;SDS011;31823;47.032;8.310;2023-04-03T01:18:43;2.17;;;1.98;;
46084;SDS011;31823;47.032;8.310;2023-04-03T01:24:43;2.92;;;2.25;;
46084;SDS011;31823;47.032;8.310;2023-04-03T01:27:05;3.03;;;2.47;;
46084;SDS011;31823;47.032;8.310;2023-04-03T01:29:32;2.80;;;2.47;;
46084;SDS011;31823;47.032;8.310;2023-04-03T01:31:59;3.03;;;2.72;;
46084;SDS011;31823;47.032;8.310;2023-04-03T01:34:26;3.33;;;2.90;;
46084;SDS011;31823;47.032;8.310;2023-04-03T01:36:52;3.25;;;2.80;;
46084;SDS011;31823;47.032;8.310;2023-04-03T01:39:18;4.80;;;3.60;;
46084;SDS011;31823;47.032;8.310;2023-04-03T01:41:45;2.85;;;2.40;;
46084;SDS011;31823;47.032;8.310;2023-04-03T01:44:11;2.53;;;2.33;;
46084;SDS011;31823;47.032;8.310;2023-04-03T01:46:37;3.28;;;2.55;;
46084;SDS011;31823;47.032;8.310;2023-04-03T01:49:03;4.10;;;2.72;;
46084;SDS011;31823;47.032;8.310;2023-04-03T01:51:29;9.60;;;7.05;;
46084;SDS011;31823;47.032;8.310;2023-04-03T01:53:55;9.75;;;7.20;;
46084;SDS011;31823;47.032;8.310;2023-04-03T01:56:20;10.65;;;8.02;;
46084;SDS011;31823;47.032;8.310;2023-04-03T01:58:46;10.07;;;7.38;;
46084;SDS011;31823;47.032;8.310;2023-04-03T02:01:12;8.80;;;6.95;;
46084;SDS011;31823;47.032;8.310;2023-04-03T02:03:37;8.70;;;6.32;;
46084;SDS011;31823;47.032;8.310;2023-04-03T02:06:03;8.45;;;5.78;;
46084;SDS011;31823;47.032;8.310;2023-04-03T02:08:29;6.80;;;5.25;;
46084;SDS011;31823;47.032;8.310;2023-04-03T02:10:54;6.82;;;5.28;;
46084;SDS011;31823;47.032;8.310;2023-04-03T02:13:20;5.88;;;4.95;;
46084;SDS011;31823;47.032;8.310;2023-04-03T02:15:46;8.25;;;5.88;;
46084;SDS011;31823;47.032;8.310;2023-04-03T02:18:12;7.28;;;5.50;;
46084;SDS011;31823;47.032;8.310;2023-04-03T02:20:38;7.18;;;5.82;;
46084;SDS011;31823;47.032;8.310;2023-04-03T02:23:04;6.60;;;5.57;;
46084;SDS011;31823;47.032;8.310;2023-04-03T02:25:30;7.18;;;5.15;;
46084;SDS011;31823;47.032;8.310;2023-04-03T02:27:56;7.85;;;5.68;;
46084;SDS011;31823;47.032;8.310;2023-04-03T02:30:22;6.05;;;4.65;;
46084;SDS011;31823;47.032;8.310;2023-04-03T02:32:47;6.22;;;5.00;;
46084;SDS011;31823;47.032;8.310;2023-04-03T02:35:13;5.50;;;4.45;;
46084;SDS011;31823;47.032;8.310;2023-04-03T02:37:39;4.70;;;4.15;;
46084;SDS011;31823;47.032;8.310;2023-04-03T02:40:05;6.07;;;4.68;;
46084;SDS011;31823;47.032;8.310;2023-04-03T02:42:31;5.38;;;4.40;;
46084;SDS011;31823;47.032;8.310;2023-04-03T02:44:57;6.75;;;4.78;;
46084;SDS011;31823;47.032;8.310;2023-04-03T02:47:22;5.68;;;4.72;;
46084;SDS011;31823;47.032;8.310;2023-04-03T02:49:48;8.93;;;4.88;;
46084;SDS011;31823;47.032;8.310;2023-04-03T02:52:14;5.72;;;4.45;;
46084;SDS011;31823;47.032;8.310;2023-04-03T02:54:39;5.45;;;4.60;;
46084;SDS011;31823;47.032;8.310;2023-04-03T02:57:05;5.82;;;4.47;;
46084;SDS011;31823;47.032;8.310;2023-04-03T02:59:33;6.10;;;4.40;;
46084;SDS011;31823;47.032;8.310;2023-04-03T03:02:00;5.75;;;4.70;;
46084;SDS011;31823;47.032;8.310;2023-04-03T03:04:26;5.25;;;4.28;;
46084;SDS011;31823;47.032;8.310;2023-04-03T03:06:51;7.15;;;5.32;;
46084;SDS011;31823;47.032;8.310;2023-04-03T03:09:17;7.55;;;5.57;;
46084;SDS011;31823;47.032;8.310;2023-04-03T03:11:43;7.78;;;5.82;;
46084;SDS011;31823;47.032;8.310;2023-04-03T03:14:09;6.45;;;4.90;;
46084;SDS011;31823;47.032;8.310;2023-04-03T03:16:35;8.32;;;6.05;;
46084;SDS011;31823;47.032;8.310;2023-04-03T03:19:00;6.75;;;5.65;;
46084;SDS011;31823;47.032;8.310;2023-04-03T03:21:26;8.15;;;6.20;;
46084;SDS011;31823;47.032;8.310;2023-04-03T03:23:52;9.98;;;5.45;;
46084;SDS011;31823;47.032;8.310;2023-04-03T03:26:18;7.97;;;6.38;;
46084;SDS011;31823;47.032;8.310;2023-04-03T03:28:43;8.65;;;6.40;;
46084;SDS011;31823;47.032;8.310;2023-04-03T03:31:10;8.38;;;6.53;;
46084;SDS011;31823;47.032;8.310;2023-04-03T03:33:37;8.85;;;6.82;;
46084;SDS011;31823;47.032;8.310;2023-04-03T03:36:02;9.93;;;6.82;;
46084;SDS011;31823;47.032;8.310;2023-04-03T03:38:28;9.05;;;6.70;;
46084;SDS011;31823;47.032;8.310;2023-04-03T03:40:54;10.88;;;7.70;;
46084;SDS011;31823;47.032;8.310;2023-04-03T03:43:19;8.27;;;6.43;;
46084;SDS011;31823;47.032;8.310;2023-04-03T03:45:46;10.10;;;7.20;;
46084;SDS011;31823;47.032;8.310;2023-04-03T03:48:15;11.70;;;7.20;;
46084;SDS011;31823;47.032;8.310;2023-04-03T03:50:41;10.68;;;6.82;;
46084;SDS011;31823;47.032;8.310;2023-04-03T03:53:06;10.00;;;6.97;;
46084;SDS011;31823;47.032;8.310;2023-04-03T03:55:32;8.98;;;6.88;;
46084;SDS011;31823;47.032;8.310;2023-04-03T03:57:57;8.98;;;6.82;;
46084;SDS011;31823;47.032;8.310;2023-04-03T04:00:23;8.90;;;6.88;;
46084;SDS011;31823;47.032;8.310;2023-04-03T04:02:48;9.77;;;6.90;;
46084;SDS011;31823;47.032;8.310;2023-04-03T04:05:14;13.23;;;8.25;;
46084;SDS011;31823;47.032;8.310;2023-04-03T04:07:40;10.18;;;7.60;;
46084;SDS011;31823;47.032;8.310;2023-04-03T04:10:05;8.85;;;7.30;;
46084;SDS011;31823;47.032;8.310;2023-04-03T04:12:31;10.15;;;7.70;;
46084;SDS011;31823;47.032;8.310;2023-04-03T04:14:57;10.77;;;7.97;;
46084;SDS011;31823;47.032;8.310;2023-04-03T04:17:22;9.57;;;7.15;;
46084;SDS011;31823;47.032;8.310;2023-04-03T04:19:48;12.10;;;7.93;;
46084;SDS011;31823;47.032;8.310;2023-04-03T04:22:13;12.63;;;8.52;;
46084;SDS011;31823;47.032;8.310;2023-04-03T04:24:39;10.88;;;8.50;;
46084;SDS011;31823;47.032;8.310;2023-04-03T04:27:05;11.77;;;8.68;;
46084;SDS011;31823;47.032;8.310;2023-04-03T04:29:30;10.50;;;8.13;;
46084;SDS011;31823;47.032;8.310;2023-04-03T04:32:00;12.70;;;8.88;;
46084;SDS011;31823;47.032;8.310;2023-04-03T04:34:27;10.95;;;8.60;;
46084;SDS011;31823;47.032;8.310;2023-04-03T04:36:53;13.80;;;8.40;;
46084;SDS011;31823;47.032;8.310;2023-04-03T04:39:18;9.40;;;7.65;;
46084;SDS011;31823;47.032;8.310;2023-04-03T04:41:44;10.43;;;7.80;;
46084;SDS011;31823;47.032;8.310;2023-04-03T04:44:09;10.40;;;7.80;;
46084;SDS011;31823;47.032;8.310;2023-04-03T04:46:35;9.15;;;7.97;;
46084;SDS011;31823;47.032;8.310;2023-04-03T04:49:01;11.38;;;7.70;;
46084;SDS011;31823;47.032;8.310;2023-04-03T04:51:26;9.45;;;7.47;;
46084;SDS011;31823;47.032;8.310;2023-04-03T04:53:52;9.10;;;7.13;;
46084;SDS011;31823;47.032;8.310;2023-04-03T04:56:17;9.98;;;7.47;;
46084;SDS011;31823;47.032;8.310;2023-04-03T04:58:43;9.32;;;7.35;;
46084;SDS011;31823;47.032;8.310;2023-04-03T05:01:10;10.48;;;7.57;;
46084;SDS011;31823;47.032;8.310;2023-04-03T05:03:36;8.30;;;6.95;;
46084;SDS011;31823;47.032;8.310;2023-04-03T05:06:01;8.52;;;6.95;;
46084;SDS011;31823;47.032;8.310;2023-04-03T05:08:27;8.10;;;6.30;;
46084;SDS011;31823;47.032;8.310;2023-04-03T05:10:53;8.15;;;6.60;;
46084;SDS011;31823;47.032;8.310;2023-04-03T05:13:19;12.35;;;7.13;;
46084;SDS011;31823;47.032;8.310;2023-04-03T05:15:45;9.43;;;7.60;;
46084;SDS011;31823;47.032;8.310;2023-04-03T05:18:11;8.30;;;6.53;;
46084;SDS011;31823;47.032;8.310;2023-04-03T05:20:36;8.25;;;6.15;;
46084;SDS011;31823;47.032;8.310;2023-04-03T05:23:03;11.55;;;7.15;;
46084;SDS011;31823;47.032;8.310;2023-04-03T05:25:29;8.13;;;6.35;;
46084;SDS011;31823;47.032;8.310;2023-04-03T05:27:55;9.02;;;6.72;;
46084;SDS011;31823;47.032;8.310;2023-04-03T05:30:20;9.45;;;7.10;;
46084;SDS011;31823;47.032;8.310;2023-04-03T05:32:46;9.35;;;6.97;;
46084;SDS011;31823;47.032;8.310;2023-04-03T05:35:12;9.93;;;7.53;;
46084;SDS011;31823;47.032;8.310;2023-04-03T05:37:37;12.85;;;8.90;;
46084;SDS011;31823;47.032;8.310;2023-04-03T05:40:04;10.23;;;7.35;;
46084;SDS011;31823;47.032;8.310;2023-04-03T05:42:30;9.95;;;7.55;;
46084;SDS011;31823;47.032;8.310;2023-04-03T05:44:56;9.20;;;7.13;;
46084;SDS011;31823;47.032;8.310;2023-04-03T05:47:21;11.48;;;7.70;;
46084;SDS011;31823;47.032;8.310;2023-04-03T05:49:47;14.90;;;7.93;;
46084;SDS011;31823;47.032;8.310;2023-04-03T05:52:26;10.15;;;7.68;;
46084;SDS011;31823;47.032;8.310;2023-04-03T05:54:53;12.10;;;7.78;;
46084;SDS011;31823;47.032;8.310;2023-04-03T05:57:20;10.30;;;7.68;;
46084;SDS011;31823;47.032;8.310;2023-04-03T05:59:46;11.00;;;8.00;;
46084;SDS011;31823;47.032;8.310;2023-04-03T06:02:12;12.05;;;8.20;;
46084;SDS011;31823;47.032;8.310;2023-04-03T06:04:40;11.38;;;7.85;;
46084;SDS011;31823;47.032;8.310;2023-04-03T06:07:06;10.40;;;7.60;;
46084;SDS011;31823;47.032;8.310;2023-04-03T06:09:34;10.88;;;8.00;;
46084;SDS011;31823;47.032;8.310;2023-04-03T06:12:00;11.05;;;7.80;;
46084;SDS011;31823;47.032;8.310;2023-04-03T06:14:27;11.65;;;8.32;;
46084;SDS011;31823;47.032;8.310;2023-04-03T06:16:52;10.48;;;7.70;;
46084;SDS011;31823;47.032;8.310;2023-04-03T06:19:19;10.63;;;7.63;;
46084;SDS011;31823;47.032;8.310;2023-04-03T06:21:45;12.18;;;7.20;;
46084;SDS011;31823;47.032;8.310;2023-04-03T06:24:12;10.35;;;7.57;;
46084;SDS011;31823;47.032;8.310;2023-04-03T06:26:41;13.32;;;6.60;;
46084;SDS011;31823;47.032;8.310;2023-04-03T06:29:07;12.25;;;7.20;;
46084;SDS011;31823;47.032;8.310;2023-04-03T06:31:33;12.27;;;8.20;;
46084;SDS011;31823;47.032;8.310;2023-04-03T06:33:59;9.82;;;7.47;;
46084;SDS011;31823;47.032;8.310;2023-04-03T06:36:25;9.73;;;7.40;;
46084;SDS011;31823;47.032;8.310;2023-04-03T06:38:51;10.88;;;6.78;;
46084;SDS011;31823;47.032;8.310;2023-04-03T06:41:16;10.23;;;7.65;;
46084;SDS011;31823;47.032;8.310;2023-04-03T06:43:43;10.98;;;7.65;;
46084;SDS011;31823;47.032;8.310;2023-04-03T06:46:16;10.90;;;7.63;;
46084;SDS011;31823;47.032;8.310;2023-04-03T06:48:43;9.80;;;7.25;;
46084;SDS011;31823;47.032;8.310;2023-04-03T06:51:15;12.07;;;8.32;;
46084;SDS011;31823;47.032;8.310;2023-04-03T06:53:42;12.38;;;8.20;;
46084;SDS011;31823;47.032;8.310;2023-04-03T06:56:08;10.63;;;7.43;;
46084;SDS011;31823;47.032;8.310;2023-04-03T06:58:33;13.32;;;8.10;;
46084;SDS011;31823;47.032;8.310;2023-04-03T07:00:59;11.80;;;8.13;;
46084;SDS011;31823;47.032;8.310;2023-04-03T07:03:25;12.18;;;7.88;;
46084;SDS011;31823;47.032;8.310;2023-04-03T07:05:50;11.70;;;8.93;;
46084;SDS011;31823;47.032;8.310;2023-04-03T07:08:16;14.43;;;8.23;;
46084;SDS011;31823;47.032;8.310;2023-04-03T07:10:41;13.82;;;8.90;;
46084;SDS011;31823;47.032;8.310;2023-04-03T07:13:07;12.05;;;8.45;;
46084;SDS011;31823;47.032;8.310;2023-04-03T07:15:32;10.32;;;7.63;;
46084;SDS011;31823;47.032;8.310;2023-04-03T07:17:58;11.20;;;7.97;;
46084;SDS011;31823;47.032;8.310;2023-04-03T07:20:24;12.27;;;8.23;;
46084;SDS011;31823;47.032;8.310;2023-04-03T07:22:50;11.45;;;8.70;;
46084;SDS011;31823;47.032;8.310;2023-04-03T07:25:15;11.52;;;8.27;;
46084;SDS011;31823;47.032;8.310;2023-04-03T07:27:42;12.00;;;7.78;;
46084;SDS011;31823;47.032;8.310;2023-04-03T07:30:08;10.23;;;7.25;;
46084;SDS011;31823;47.032;8.310;2023-04-03T07:32:34;9.77;;;7.38;;
46084;SDS011;31823;47.032;8.310;2023-04-03T07:35:00;12.23;;;8.27;;
46084;SDS011;31823;47.032;8.310;2023-04-03T07:37:25;11.05;;;7.25;;
46084;SDS011;31823;47.032;8.310;2023-04-03T07:39:51;14.63;;;7.18;;
46084;SDS011;31823;47.032;8.310;2023-04-03T07:42:17;11.43;;;7.75;;
46084;SDS011;31823;47.032;8.310;2023-04-03T07:44:42;13.90;;;7.82;;
46084;SDS011;31823;47.032;8.310;2023-04-03T07:47:08;15.43;;;8.10;;
46084;SDS011;31823;47.032;8.310;2023-04-03T07:49:34;12.07;;;7.30;;
46084;SDS011;31823;47.032;8.310;2023-04-03T07:52:03;14.88;;;7.72;;
46084;SDS011;31823;47.032;8.310;2023-04-03T07:54:29;10.45;;;7.65;;
46084;SDS011;31823;47.032;8.310;2023-04-03T07:56:55;12.40;;;7.65;;
46084;SDS011;31823;47.032;8.310;2023-04-03T07:59:21;11.27;;;7.22;;
46084;SDS011;31823;47.032;8.310;2023-04-03T08:01:47;9.80;;;7.13;;
46084;SDS011;31823;47.032;8.310;2023-04-03T08:04:12;9.63;;;7.38;;
46084;SDS011;31823;47.032;8.310;2023-04-03T08:06:38;11.35;;;7.35;;
46084;SDS011;31823;47.032;8.310;2023-04-03T08:09:04;11.05;;;7.95;;
46084;SDS011;31823;47.032;8.310;2023-04-03T08:11:29;9.90;;;7.28;;
46084;SDS011;31823;47.032;8.310;2023-04-03T08:13:55;9.05;;;7.13;;
46084;SDS011;31823;47.032;8.310;2023-04-03T08:16:22;10.35;;;7.50;;
46084;SDS011;31823;47.032;8.310;2023-04-03T08:18:51;13.43;;;7.72;;
46084;SDS011;31823;47.032;8.310;2023-04-03T08:21:17;9.50;;;7.07;;
46084;SDS011;31823;47.032;8.310;2023-04-03T08:23:43;10.20;;;7.22;;
46084;SDS011;31823;47.032;8.310;2023-04-03T08:26:13;11.48;;;7.55;;
46084;SDS011;31823;47.032;8.310;2023-04-03T08:28:40;9.02;;;6.97;;
46084;SDS011;31823;47.032;8.310;2023-04-03T08:31:06;10.07;;;7.00;;
46084;SDS011;31823;47.032;8.310;2023-04-03T08:33:39;11.50;;;8.13;;
46084;SDS011;31823;47.032;8.310;2023-04-03T08:36:05;11.80;;;7.57;;
46084;SDS011;31823;47.032;8.310;2023-04-03T08:38:40;10.75;;;7.35;;
46084;SDS011;31823;47.032;8.310;2023-04-03T08:49:04;11.98;;;7.13;;
46084;SDS011;31823;47.032;8.310;2023-04-03T08:54:16;9.48;;;6.70;;
46084;SDS011;31823;47.032;8.310;2023-04-03T08:57:04;11.02;;;7.13;;
46084;SDS011;31823;47.032;8.310;2023-04-03T08:59:34;12.05;;;7.35;;
46084;SDS011;31823;47.032;8.310;2023-04-03T09:02:04;9.50;;;7.05;;
46084;SDS011;31823;47.032;8.310;2023-04-03T09:04:42;10.38;;;6.72;;
46084;SDS011;31823;47.032;8.310;2023-04-03T09:07:08;10.18;;;7.18;;
46084;SDS011;31823;47.032;8.310;2023-04-03T09:09:51;10.43;;;7.55;;
46084;SDS011;31823;47.032;8.310;2023-04-03T09:12:23;9.45;;;6.93;;
46084;SDS011;31823;47.032;8.310;2023-04-03T09:17:33;9.95;;;6.97;;
46084;SDS011;31823;47.032;8.310;2023-04-03T09:25:53;9.88;;;7.30;;
46084;SDS011;31823;47.032;8.310;2023-04-03T09:28:25;9.45;;;6.80;;
46084;SDS011;31823;47.032;8.310;2023-04-03T09:30:52;10.52;;;7.40;;
46084;SDS011;31823;47.032;8.310;2023-04-03T09:33:18;10.57;;;7.38;;
46084;SDS011;31823;47.032;8.310;2023-04-03T09:35:46;10.50;;;7.43;;
46084;SDS011;31823;47.032;8.310;2023-04-03T09:45:51;8.90;;;6.87;;
46084;SDS011;31823;47.032;8.310;2023-04-03T09:48:22;7.70;;;6.53;;
46084;SDS011;31823;47.032;8.310;2023-04-03T09:58:49;11.25;;;6.63;;
46084;SDS011;31823;47.032;8.310;2023-04-03T10:01:23;10.02;;;7.47;;
46084;SDS011;31823;47.032;8.310;2023-04-03T10:06:29;11.45;;;6.68;;
46084;SDS011;31823;47.032;8.310;2023-04-03T10:09:00;12.60;;;6.18;;
46084;SDS011;31823;47.032;8.310;2023-04-03T10:11:29;11.00;;;6.90;;
46084;SDS011;31823;47.032;8.310;2023-04-03T10:13:56;10.05;;;7.03;;
46084;SDS011;31823;47.032;8.310;2023-04-03T10:16:45;9.27;;;6.97;;
46084;SDS011;31823;47.032;8.310;2023-04-03T10:19:31;9.20;;;6.75;;
46084;SDS011;31823;47.032;8.310;2023-04-03T10:22:28;10.18;;;7.40;;
46084;SDS011;31823;47.032;8.310;2023-04-03T10:28:14;7.63;;;6.20;;
46084;SDS011;31823;47.032;8.310;2023-04-03T10:48:17;9.02;;;6.93;;
46084;SDS011;31823;47.032;8.310;2023-04-03T10:58:30;11.95;;;7.15;;
46084;SDS011;31823;47.032;8.310;2023-04-03T11:01:20;10.35;;;7.18;;
46084;SDS011;31823;47.032;8.310;2023-04-03T11:03:53;9.85;;;7.40;;
46084;SDS011;31823;47.032;8.310;2023-04-03T11:06:22;11.55;;;6.70;;
46084;SDS011;31823;47.032;8.310;2023-04-03T11:11:35;9.43;;;7.15;;
46084;SDS011;31823;47.032;8.310;2023-04-03T11:14:11;8.95;;;6.75;;
46084;SDS011;31823;47.032;8.310;2023-04-03T11:16:42;10.93;;;6.97;;
46084;SDS011;31823;47.032;8.310;2023-04-03T11:22:33;8.88;;;6.32;;
46084;SDS011;31823;47.032;8.310;2023-04-03T11:24:46;10.43;;;7.07;;
46084;SDS011;31823;47.032;8.310;2023-04-03T11:27:42;8.35;;;6.43;;
46084;SDS011;31823;47.032;8.310;2023-04-03T11:30:15;8.77;;;6.00;;
46084;SDS011;31823;47.032;8.310;2023-04-03T11:35:47;8.80;;;6.55;;
46084;SDS011;31823;47.032;8.310;2023-04-03T11:38:36;9.07;;;6.50;;
46084;SDS011;31823;47.032;8.310;2023-04-03T11:41:07;10.93;;;6.10;;
46084;SDS011;31823;47.032;8.310;2023-04-03T11:43:34;9.43;;;7.00;;
46084;SDS011;31823;47.032;8.310;2023-04-03T11:46:48;8.35;;;5.72;;
46084;SDS011;31823;47.032;8.310;2023-04-03T12:37:27;7.95;;;5.70;;
46084;SDS011;31823;47.032;8.310;2023-04-03T12:46:19;9.02;;;5.30;;
46084;SDS011;31823;47.032;8.310;2023-04-03T12:48:51;5.95;;;5.20;;
46084;SDS011;31823;47.032;8.310;2023-04-03T12:51:27;5.85;;;4.95;;
46084;SDS011;31823;47.032;8.310;2023-04-03T12:54:16;7.70;;;5.75;;
46084;SDS011;31823;47.032;8.310;2023-04-03T12:56:45;7.90;;;5.35;;
46084;SDS011;31823;47.032;8.310;2023-04-03T12:59:15;6.97;;;5.80;;
46084;SDS011;31823;47.032;8.310;2023-04-03T13:01:58;11.88;;;5.78;;
46084;SDS011;31823;47.032;8.310;2023-04-03T13:04:26;6.20;;;4.55;;
46084;SDS011;31823;47.032;8.310;2023-04-03T13:06:53;7.70;;;5.10;;
46084;SDS011;31823;47.032;8.310;2023-04-03T13:11:46;5.57;;;4.72;;
46084;SDS011;31823;47.032;8.310;2023-04-03T13:14:16;6.90;;;5.00;;
46084;SDS011;31823;47.032;8.310;2023-04-03T13:16:54;5.97;;;4.75;;
46084;SDS011;31823;47.032;8.310;2023-04-03T13:19:38;5.28;;;4.53;;
46084;SDS011;31823;47.032;8.310;2023-04-03T13:22:07;7.57;;;5.18;;
46084;SDS011;31823;47.032;8.310;2023-04-03T13:24:41;7.22;;;5.50;;
46084;SDS011;31823;47.032;8.310;2023-04-03T13:27:10;6.13;;;4.75;;
46084;SDS011;31823;47.032;8.310;2023-04-03T13:29:37;6.70;;;5.50;;
46084;SDS011;31823;47.032;8.310;2023-04-03T13:32:04;10.95;;;5.38;;
46084;SDS011;31823;47.032;8.310;2023-04-03T13:34:38;7.57;;;4.90;;
46084;SDS011;31823;47.032;8.310;2023-04-03T13:37:19;5.82;;;4.90;;
46084;SDS011;31823;47.032;8.310;2023-04-03T13:39:55;6.05;;;4.95;;
46084;SDS011;31823;47.032;8.310;2023-04-03T13:42:24;8.60;;;5.03;;
46084;SDS011;31823;47.032;8.310;2023-04-03T13:47:49;5.97;;;4.93;;
46084;SDS011;31823;47.032;8.310;2023-04-03T13:53:00;5.70;;;4.65;;
46084;SDS011;31823;47.032;8.310;2023-04-03T13:55:29;6.45;;;5.07;;
46084;SDS011;31823;47.032;8.310;2023-04-03T14:00:35;6.05;;;4.82;;
46084;SDS011;31823;47.032;8.310;2023-04-03T14:03:02;6.47;;;5.20;;
46084;SDS011;31823;47.032;8.310;2023-04-03T14:05:36;7.03;;;5.30;;
46084;SDS011;31823;47.032;8.310;2023-04-03T14:08:02;5.20;;;4.55;;
46084;SDS011;31823;47.032;8.310;2023-04-03T14:10:28;6.13;;;4.65;;
46084;SDS011;31823;47.032;8.310;2023-04-03T14:12:54;6.15;;;4.63;;
46084;SDS011;31823;47.032;8.310;2023-04-03T14:15:24;5.50;;;4.78;;
46084;SDS011;31823;47.032;8.310;2023-04-03T14:17:53;6.75;;;4.85;;
46084;SDS011;31823;47.032;8.310;2023-04-03T14:20:21;6.60;;;5.13;;
46084;SDS011;31823;47.032;8.310;2023-04-03T14:22:49;7.05;;;5.22;;
46084;SDS011;31823;47.032;8.310;2023-04-03T14:25:16;6.28;;;5.30;;
46084;SDS011;31823;47.032;8.310;2023-04-03T14:27:43;5.72;;;4.60;;
46084;SDS011;31823;47.032;8.310;2023-04-03T14:30:44;6.47;;;4.95;;
46084;SDS011;31823;47.032;8.310;2023-04-03T14:33:03;5.45;;;4.50;;
46084;SDS011;31823;47.032;8.310;2023-04-03T14:35:28;6.10;;;4.88;;
46084;SDS011;31823;47.032;8.310;2023-04-03T14:37:54;7.03;;;5.32;;
46084;SDS011;31823;47.032;8.310;2023-04-03T14:40:21;7.95;;;5.30;;
46084;SDS011;31823;47.032;8.310;2023-04-03T14:42:50;7.30;;;5.55;;
46084;SDS011;31823;47.032;8.310;2023-04-03T14:45:16;7.82;;;5.55;;
46084;SDS011;31823;47.032;8.310;2023-04-03T14:47:47;7.88;;;5.63;;
46084;SDS011;31823;47.032;8.310;2023-04-03T14:50:16;9.30;;;6.40;;
46084;SDS011;31823;47.032;8.310;2023-04-03T14:52:46;8.60;;;5.63;;
46084;SDS011;31823;47.032;8.310;2023-04-03T14:55:14;7.47;;;5.43;;
46084;SDS011;31823;47.032;8.310;2023-04-03T14:57:42;6.22;;;5.20;;
46084;SDS011;31823;47.032;8.310;2023-04-03T15:00:12;7.50;;;5.65;;
46084;SDS011;31823;47.032;8.310;2023-04-03T15:02:40;7.85;;;5.70;;
46084;SDS011;31823;47.032;8.310;2023-04-03T15:05:07;7.13;;;5.32;;
46084;SDS011;31823;47.032;8.310;2023-04-03T15:07:36;7.20;;;5.57;;
46084;SDS011;31823;47.032;8.310;2023-04-03T15:10:28;7.07;;;5.80;;
46084;SDS011;31823;47.032;8.310;2023-04-03T15:12:53;7.15;;;5.80;;
46084;SDS011;31823;47.032;8.310;2023-04-03T15:15:20;8.13;;;6.35;;
46084;SDS011;31823;47.032;8.310;2023-04-03T15:17:48;7.82;;;5.60;;
46084;SDS011;31823;47.032;8.310;2023-04-03T15:20:19;7.75;;;5.93;;
46084;SDS011;31823;47.032;8.310;2023-04-03T15:22:48;7.72;;;5.70;;
46084;SDS011;31823;47.032;8.310;2023-04-03T15:25:14;8.15;;;5.82;;
46084;SDS011;31823;47.032;8.310;2023-04-03T15:27:40;8.10;;;5.88;;
46084;SDS011;31823;47.032;8.310;2023-04-03T15:30:08;8.43;;;6.05;;
46084;SDS011;31823;47.032;8.310;2023-04-03T15:32:37;12.25;;;6.05;;
46084;SDS011;31823;47.032;8.310;2023-04-03T15:35:03;8.85;;;5.78;;
46084;SDS011;31823;47.032;8.310;2023-04-03T15:37:29;8.15;;;5.97;;
46084;SDS011;31823;47.032;8.310;2023-04-03T15:39:55;8.48;;;5.60;;
46084;SDS011;31823;47.032;8.310;2023-04-03T15:42:20;7.57;;;6.10;;
46084;SDS011;31823;47.032;8.310;2023-04-03T15:44:46;8.85;;;5.53;;
46084;SDS011;31823;47.032;8.310;2023-04-03T15:47:16;7.10;;;5.82;;
46084;SDS011;31823;47.032;8.310;2023-04-03T15:49:42;7.00;;;5.25;;
46084;SDS011;31823;47.032;8.310;2023-04-03T15:52:07;7.68;;;5.80;;
46084;SDS011;31823;47.032;8.310;2023-04-03T15:54:36;8.45;;;6.05;;
46084;SDS011;31823;47.032;8.310;2023-04-03T15:57:02;7.82;;;5.95;;
46084;SDS011;31823;47.032;8.310;2023-04-03T15:59:27;7.95;;;6.15;;
46084;SDS011;31823;47.032;8.310;2023-04-03T16:01:55;6.63;;;5.65;;
46084;SDS011;31823;47.032;8.310;2023-04-03T16:04:21;7.32;;;6.05;;
46084;SDS011;31823;47.032;8.310;2023-04-03T16:06:47;6.32;;;5.63;;
46084;SDS011;31823;47.032;8.310;2023-04-03T16:09:13;8.80;;;6.40;;
46084;SDS011;31823;47.032;8.310;2023-04-03T16:11:38;7.43;;;5.55;;
46084;SDS011;31823;47.032;8.310;2023-04-03T16:14:05;7.88;;;6.00;;
46084;SDS011;31823;47.032;8.310;2023-04-03T16:16:31;7.85;;;5.82;;
46084;SDS011;31823;47.032;8.310;2023-04-03T16:18:57;9.75;;;5.50;;
46084;SDS011;31823;47.032;8.310;2023-04-03T16:21:23;8.68;;;6.32;;
46084;SDS011;31823;47.032;8.310;2023-04-03T16:23:49;8.70;;;6.13;;
46084;SDS011;31823;47.032;8.310;2023-04-03T16:26:15;6.43;;;5.72;;
46084;SDS011;31823;47.032;8.310;2023-04-03T16:28:42;7.47;;;6.22;;
46084;SDS011;31823;47.032;8.310;2023-04-03T16:31:08;6.20;;;5.22;;
46084;SDS011;31823;47.032;8.310;2023-04-03T16:33:33;5.95;;;5.35;;
46084;SDS011;31823;47.032;8.310;2023-04-03T16:36:00;7.95;;;6.07;;
46084;SDS011;31823;47.032;8.310;2023-04-03T16:38:25;9.68;;;6.13;;
46084;SDS011;31823;47.032;8.310;2023-04-03T16:40:51;7.28;;;5.63;;
46084;SDS011;31823;47.032;8.310;2023-04-03T16:43:22;8.38;;;6.07;;
46084;SDS011;31823;47.032;8.310;2023-04-03T16:45:48;10.27;;;6.28;;
46084;SDS011;31823;47.032;8.310;2023-04-03T16:48:14;6.80;;;5.63;;
46084;SDS011;31823;47.032;8.310;2023-04-03T16:50:40;8.68;;;5.45;;
46084;SDS011;31823;47.032;8.310;2023-04-03T16:53:05;8.77;;;6.60;;
46084;SDS011;31823;47.032;8.310;2023-04-03T16:55:35;7.40;;;5.95;;
46084;SDS011;31823;47.032;8.310;2023-04-03T16:58:01;7.20;;;5.60;;
46084;SDS011;31823;47.032;8.310;2023-04-03T17:00:29;5.90;;;5.30;;
46084;SDS011;31823;47.032;8.310;2023-04-03T17:02:55;9.63;;;6.35;;
46084;SDS011;31823;47.032;8.310;2023-04-03T17:05:21;6.20;;;5.07;;
46084;SDS011;31823;47.032;8.310;2023-04-03T17:07:46;10.50;;;5.97;;
46084;SDS011;31823;47.032;8.310;2023-04-03T17:10:12;8.93;;;5.95;;
46084;SDS011;31823;47.032;8.310;2023-04-03T17:12:38;7.15;;;5.65;;
46084;SDS011;31823;47.032;8.310;2023-04-03T17:15:04;8.10;;;6.22;;